sensor_id;sensor_type;location;lat;lon;timestamp;P1;durP1;ratioP1;P2;durP2;ratioP2
22284;SDS011;11311;52.192;20.900;2023-11-22T00:01:48;22.33;;;9.60;;
22284;SDS011;11311;52.192;20.900;2023-11-22T00:04:18;10.18;;;8.57;;
22284;SDS011;11311;52.192;20.900;2023-11-22T00:06:47;13.80;;;8.87;;
22284;SDS011;11311;52.192;20.900;2023-11-22T00:09:16;12.15;;;8.77;;
22284;SDS011;11311;52.192;20.900;2023-11-22T00:11:49;11.40;;;9.32;;
22284;SDS011;11311;52.192;20.900;2023-11-22T00:14:18;11.48;;;8.73;;
22284;SDS011;11311;52.192;20.900;2023-11-22T00:16:49;11.50;;;8.68;;
22284;SDS011;11311;52.192;20.900;2023-11-22T00:19:19;10.70;;;8.30;;
22284;SDS011;11311;52.192;20.900;2023-11-22T00:21:49;12.77;;;8.30;;
22284;SDS011;11311;52.192;20.900;2023-11-22T00:24:19;14.63;;;8.68;;
22284;SDS011;11311;52.192;20.900;2023-11-22T00:26:48;9.13;;;8.10;;
22284;SDS011;11311;52.192;20.900;2023-11-22T00:29:17;9.63;;;7.95;;
22284;SDS011;11311;52.192;20.900;2023-11-22T00:31:45;13.00;;;9.32;;
22284;SDS011;11311;52.192;20.900;2023-11-22T00:34:16;14.38;;;8.98;;
22284;SDS011;11311;52.192;20.900;2023-11-22T00:36:47;13.57;;;8.55;;
22284;SDS011;11311;52.192;20.900;2023-11-22T00:39:18;9.65;;;8.65;;
22284;SDS011;11311;52.192;20.900;2023-11-22T00:41:47;12.88;;;8.38;;
22284;SDS011;11311;52.192;20.900;2023-11-22T00:44:16;7.75;;;6.22;;
22284;SDS011;11311;52.192;20.900;2023-11-22T00:46:45;12.35;;;7.63;;
22284;SDS011;11311;52.192;20.900;2023-11-22T00:49:17;10.65;;;8.35;;
22284;SDS011;11311;52.192;20.900;2023-11-22T00:51:46;10.25;;;8.30;;
22284;SDS011;11311;52.192;20.900;2023-11-22T00:54:15;11.88;;;8.10;;
22284;SDS011;11311;52.192;20.900;2023-11-22T00:56:44;11.18;;;6.22;;
22284;SDS011;11311;52.192;20.900;2023-11-22T00:59:13;10.23;;;8.40;;
22284;SDS011;11311;52.192;20.900;2023-11-22T01:01:42;13.68;;;7.10;;
22284;SDS011;11311;52.192;20.900;2023-11-22T01:04:11;10.95;;;7.82;;
22284;SDS011;11311;52.192;20.900;2023-11-22T01:06:42;9.95;;;7.95;;
22284;SDS011;11311;52.192;20.900;2023-11-22T01:09:11;12.40;;;8.18;;
22284;SDS011;11311;52.192;20.900;2023-11-22T01:11:41;12.95;;;7.68;;
22284;SDS011;11311;52.192;20.900;2023-11-22T01:14:12;9.18;;;8.10;;
22284;SDS011;11311;52.192;20.900;2023-11-22T01:16:41;10.00;;;7.40;;
22284;SDS011;11311;52.192;20.900;2023-11-22T01:19:10;9.00;;;7.83;;
22284;SDS011;11311;52.192;20.900;2023-11-22T01:21:39;11.10;;;7.93;;
22284;SDS011;11311;52.192;20.900;2023-11-22T01:24:10;10.13;;;6.78;;
22284;SDS011;11311;52.192;20.900;2023-11-22T01:26:39;9.17;;;7.67;;
22284;SDS011;11311;52.192;20.900;2023-11-22T01:29:08;15.13;;;7.85;;
22284;SDS011;11311;52.192;20.900;2023-11-22T01:34:09;12.32;;;7.80;;
22284;SDS011;11311;52.192;20.900;2023-11-22T01:36:42;10.02;;;7.53;;
22284;SDS011;11311;52.192;20.900;2023-11-22T01:39:12;10.93;;;7.85;;
22284;SDS011;11311;52.192;20.900;2023-11-22T01:41:43;9.90;;;8.55;;
22284;SDS011;11311;52.192;20.900;2023-11-22T01:44:13;11.90;;;8.10;;
22284;SDS011;11311;52.192;20.900;2023-11-22T01:46:41;9.75;;;7.50;;
22284;SDS011;11311;52.192;20.900;2023-11-22T01:49:11;10.73;;;7.22;;
22284;SDS011;11311;52.192;20.900;2023-11-22T01:51:42;7.65;;;6.30;;
22284;SDS011;11311;52.192;20.900;2023-11-22T01:54:12;7.80;;;6.05;;
22284;SDS011;11311;52.192;20.900;2023-11-22T01:56:41;12.45;;;7.53;;
22284;SDS011;11311;52.192;20.900;2023-11-22T01:59:10;10.35;;;6.88;;
22284;SDS011;11311;52.192;20.900;2023-11-22T02:01:40;9.02;;;6.65;;
22284;SDS011;11311;52.192;20.900;2023-11-22T02:04:09;7.70;;;6.13;;
22284;SDS011;11311;52.192;20.900;2023-11-22T02:06:43;7.28;;;6.40;;
22284;SDS011;11311;52.192;20.900;2023-11-22T02:09:12;8.15;;;6.72;;
22284;SDS011;11311;52.192;20.900;2023-11-22T02:11:43;9.82;;;6.35;;
22284;SDS011;11311;52.192;20.900;2023-11-22T02:14:12;8.50;;;6.68;;
22284;SDS011;11311;52.192;20.900;2023-11-22T02:16:41;6.88;;;6.22;;
22284;SDS011;11311;52.192;20.900;2023-11-22T02:19:13;13.07;;;6.57;;
22284;SDS011;11311;52.192;20.900;2023-11-22T02:21:45;12.88;;;6.50;;
22284;SDS011;11311;52.192;20.900;2023-11-22T02:24:16;7.47;;;6.43;;
22284;SDS011;11311;52.192;20.900;2023-11-22T02:26:45;8.52;;;6.50;;
22284;SDS011;11311;52.192;20.900;2023-11-22T02:29:14;8.00;;;6.73;;
22284;SDS011;11311;52.192;20.900;2023-11-22T02:31:42;9.40;;;7.05;;
22284;SDS011;11311;52.192;20.900;2023-11-22T02:34:12;7.93;;;6.53;;
22284;SDS011;11311;52.192;20.900;2023-11-22T02:36:43;8.32;;;6.57;;
22284;SDS011;11311;52.192;20.900;2023-11-22T02:39:27;8.57;;;6.68;;
22284;SDS011;11311;52.192;20.900;2023-11-22T02:42:01;11.00;;;6.72;;
22284;SDS011;11311;52.192;20.900;2023-11-22T02:44:31;11.30;;;6.50;;
22284;SDS011;11311;52.192;20.900;2023-11-22T02:47:00;6.57;;;4.53;;
22284;SDS011;11311;52.192;20.900;2023-11-22T02:49:28;8.35;;;6.38;;
22284;SDS011;11311;52.192;20.900;2023-11-22T02:51:58;10.67;;;5.97;;
22284;SDS011;11311;52.192;20.900;2023-11-22T02:54:29;9.23;;;6.30;;
22284;SDS011;11311;52.192;20.900;2023-11-22T02:56:58;10.60;;;5.70;;
22284;SDS011;11311;52.192;20.900;2023-11-22T02:59:27;6.57;;;5.03;;
22284;SDS011;11311;52.192;20.900;2023-11-22T03:01:56;9.70;;;7.13;;
22284;SDS011;11311;52.192;20.900;2023-11-22T03:04:26;10.13;;;7.40;;
22284;SDS011;11311;52.192;20.900;2023-11-22T03:06:56;8.25;;;6.53;;
22284;SDS011;11311;52.192;20.900;2023-11-22T03:09:25;7.65;;;6.22;;
22284;SDS011;11311;52.192;20.900;2023-11-22T03:11:56;10.15;;;5.93;;
22284;SDS011;11311;52.192;20.900;2023-11-22T03:14:25;7.35;;;5.75;;
22284;SDS011;11311;52.192;20.900;2023-11-22T03:16:54;9.38;;;6.45;;
22284;SDS011;11311;52.192;20.900;2023-11-22T03:19:23;7.90;;;6.00;;
22284;SDS011;11311;52.192;20.900;2023-11-22T03:21:52;11.80;;;5.82;;
22284;SDS011;11311;52.192;20.900;2023-11-22T03:24:23;6.45;;;5.53;;
22284;SDS011;11311;52.192;20.900;2023-11-22T03:26:52;6.93;;;6.00;;
22284;SDS011;11311;52.192;20.900;2023-11-22T03:29:24;8.10;;;6.22;;
22284;SDS011;11311;52.192;20.900;2023-11-22T03:31:53;6.47;;;5.85;;
22284;SDS011;11311;52.192;20.900;2023-11-22T03:34:22;9.02;;;6.50;;
22284;SDS011;11311;52.192;20.900;2023-11-22T03:36:52;12.18;;;6.25;;
22284;SDS011;11311;52.192;20.900;2023-11-22T03:39:21;9.57;;;6.43;;
22284;SDS011;11311;52.192;20.900;2023-11-22T03:41:50;7.13;;;6.15;;
22284;SDS011;11311;52.192;20.900;2023-11-22T03:44:19;8.37;;;6.47;;
22284;SDS011;11311;52.192;20.900;2023-11-22T03:46:50;7.57;;;6.78;;
22284;SDS011;11311;52.192;20.900;2023-11-22T03:49:19;7.20;;;6.50;;
22284;SDS011;11311;52.192;20.900;2023-11-22T03:51:48;6.70;;;5.90;;
22284;SDS011;11311;52.192;20.900;2023-11-22T03:54:17;5.77;;;5.07;;
22284;SDS011;11311;52.192;20.900;2023-11-22T03:56:46;8.50;;;6.35;;
22284;SDS011;11311;52.192;20.900;2023-11-22T03:59:15;6.65;;;5.90;;
22284;SDS011;11311;52.192;20.900;2023-11-22T04:01:45;7.15;;;6.35;;
22284;SDS011;11311;52.192;20.900;2023-11-22T04:04:15;9.18;;;6.30;;
22284;SDS011;11311;52.192;20.900;2023-11-22T04:06:44;8.23;;;6.47;;
22284;SDS011;11311;52.192;20.900;2023-11-22T04:09:14;8.52;;;6.50;;
22284;SDS011;11311;52.192;20.900;2023-11-22T04:11:44;10.48;;;7.03;;
22284;SDS011;11311;52.192;20.900;2023-11-22T04:14:13;8.35;;;6.70;;
22284;SDS011;11311;52.192;20.900;2023-11-22T04:16:42;10.55;;;6.63;;
22284;SDS011;11311;52.192;20.900;2023-11-22T04:19:12;9.35;;;7.07;;
22284;SDS011;11311;52.192;20.900;2023-11-22T04:21:43;10.45;;;6.70;;
22284;SDS011;11311;52.192;20.900;2023-11-22T04:24:12;11.85;;;6.80;;
22284;SDS011;11311;52.192;20.900;2023-11-22T04:26:41;8.38;;;7.20;;
22284;SDS011;11311;52.192;20.900;2023-11-22T04:29:14;14.55;;;7.15;;
22284;SDS011;11311;52.192;20.900;2023-11-22T04:31:43;9.25;;;7.25;;
22284;SDS011;11311;52.192;20.900;2023-11-22T04:34:12;6.95;;;6.15;;
22284;SDS011;11311;52.192;20.900;2023-11-22T04:36:43;12.75;;;7.05;;
22284;SDS011;11311;52.192;20.900;2023-11-22T04:39:13;9.93;;;7.18;;
22284;SDS011;11311;52.192;20.900;2023-11-22T04:41:42;9.52;;;7.00;;
22284;SDS011;11311;52.192;20.900;2023-11-22T04:44:12;12.48;;;7.40;;
22284;SDS011;11311;52.192;20.900;2023-11-22T04:46:40;8.15;;;6.65;;
22284;SDS011;11311;52.192;20.900;2023-11-22T04:49:09;10.50;;;5.80;;
22284;SDS011;11311;52.192;20.900;2023-11-22T04:51:39;6.20;;;5.33;;
22284;SDS011;11311;52.192;20.900;2023-11-22T04:54:12;8.88;;;6.60;;
22284;SDS011;11311;52.192;20.900;2023-11-22T04:56:41;8.43;;;6.18;;
22284;SDS011;11311;52.192;20.900;2023-11-22T04:59:10;8.73;;;5.63;;
22284;SDS011;11311;52.192;20.900;2023-11-22T05:01:38;8.32;;;7.13;;
22284;SDS011;11311;52.192;20.900;2023-11-22T05:04:08;10.55;;;5.75;;
22284;SDS011;11311;52.192;20.900;2023-11-22T05:06:37;9.15;;;6.95;;
22284;SDS011;11311;52.192;20.900;2023-11-22T05:09:06;11.27;;;7.10;;
22284;SDS011;11311;52.192;20.900;2023-11-22T05:14:08;12.95;;;8.40;;
22284;SDS011;11311;52.192;20.900;2023-11-22T05:16:37;13.15;;;7.57;;
22284;SDS011;11311;52.192;20.900;2023-11-22T05:19:06;14.98;;;8.20;;
22284;SDS011;11311;52.192;20.900;2023-11-22T05:21:35;11.07;;;6.93;;
22284;SDS011;11311;52.192;20.900;2023-11-22T05:24:04;11.60;;;7.22;;
22284;SDS011;11311;52.192;20.900;2023-11-22T05:26:37;8.82;;;6.97;;
22284;SDS011;11311;52.192;20.900;2023-11-22T05:29:06;8.73;;;6.78;;
22284;SDS011;11311;52.192;20.900;2023-11-22T05:31:35;12.70;;;6.82;;
22284;SDS011;11311;52.192;20.900;2023-11-22T05:34:05;12.52;;;7.72;;
22284;SDS011;11311;52.192;20.900;2023-11-22T05:36:34;8.37;;;6.37;;
22284;SDS011;11311;52.192;20.900;2023-11-22T05:39:03;17.63;;;7.63;;
22284;SDS011;11311;52.192;20.900;2023-11-22T05:41:32;9.02;;;7.10;;
22284;SDS011;11311;52.192;20.900;2023-11-22T05:44:02;9.10;;;5.75;;
22284;SDS011;11311;52.192;20.900;2023-11-22T05:46:31;9.73;;;7.45;;
22284;SDS011;11311;52.192;20.900;2023-11-22T05:49:00;9.47;;;7.37;;
22284;SDS011;11311;52.192;20.900;2023-11-22T05:51:29;14.05;;;8.02;;
22284;SDS011;11311;52.192;20.900;2023-11-22T05:53:59;14.07;;;7.13;;
22284;SDS011;11311;52.192;20.900;2023-11-22T05:56:28;6.85;;;5.63;;
22284;SDS011;11311;52.192;20.900;2023-11-22T05:58:57;9.40;;;6.78;;
22284;SDS011;11311;52.192;20.900;2023-11-22T06:01:28;16.40;;;8.55;;
22284;SDS011;11311;52.192;20.900;2023-11-22T06:03:57;13.45;;;7.97;;
22284;SDS011;11311;52.192;20.900;2023-11-22T06:06:26;10.93;;;7.93;;
22284;SDS011;11311;52.192;20.900;2023-11-22T06:08:55;11.27;;;7.03;;
22284;SDS011;11311;52.192;20.900;2023-11-22T06:11:25;9.02;;;7.63;;
22284;SDS011;11311;52.192;20.900;2023-11-22T06:13:53;7.97;;;6.85;;
22284;SDS011;11311;52.192;20.900;2023-11-22T06:16:22;13.32;;;7.85;;
22284;SDS011;11311;52.192;20.900;2023-11-22T06:18:53;11.43;;;8.30;;
22284;SDS011;11311;52.192;20.900;2023-11-22T06:21:22;13.30;;;8.25;;
22284;SDS011;11311;52.192;20.900;2023-11-22T06:23:54;14.30;;;8.27;;
22284;SDS011;11311;52.192;20.900;2023-11-22T06:26:26;10.25;;;8.00;;
22284;SDS011;11311;52.192;20.900;2023-11-22T06:28:55;9.50;;;5.60;;
22284;SDS011;11311;52.192;20.900;2023-11-22T06:31:23;8.93;;;7.82;;
22284;SDS011;11311;52.192;20.900;2023-11-22T06:33:54;12.25;;;8.50;;
22284;SDS011;11311;52.192;20.900;2023-11-22T06:36:23;10.90;;;7.72;;
22284;SDS011;11311;52.192;20.900;2023-11-22T06:38:52;11.27;;;8.05;;
22284;SDS011;11311;52.192;20.900;2023-11-22T06:41:21;12.02;;;7.47;;
22284;SDS011;11311;52.192;20.900;2023-11-22T06:43:50;8.88;;;7.30;;
22284;SDS011;11311;52.192;20.900;2023-11-22T06:46:20;12.00;;;8.23;;
22284;SDS011;11311;52.192;20.900;2023-11-22T06:51:20;13.32;;;8.15;;
22284;SDS011;11311;52.192;20.900;2023-11-22T06:53:50;13.57;;;7.78;;
22284;SDS011;11311;52.192;20.900;2023-11-22T06:56:19;13.10;;;7.00;;
22284;SDS011;11311;52.192;20.900;2023-11-22T06:58:48;13.95;;;8.30;;
22284;SDS011;11311;52.192;20.900;2023-11-22T07:01:21;13.15;;;7.82;;
22284;SDS011;11311;52.192;20.900;2023-11-22T07:03:53;9.88;;;7.50;;
22284;SDS011;11311;52.192;20.900;2023-11-22T07:06:24;11.05;;;7.50;;
22284;SDS011;11311;52.192;20.900;2023-11-22T07:08:53;18.65;;;10.68;;
22284;SDS011;11311;52.192;20.900;2023-11-22T07:11:22;13.90;;;9.45;;
22284;SDS011;11311;52.192;20.900;2023-11-22T07:13:51;14.73;;;9.50;;
22284;SDS011;11311;52.192;20.900;2023-11-22T07:16:20;7.27;;;6.43;;
22284;SDS011;11311;52.192;20.900;2023-11-22T07:18:49;9.40;;;6.37;;
22284;SDS011;11311;52.192;20.900;2023-11-22T07:21:18;15.00;;;8.30;;
22284;SDS011;11311;52.192;20.900;2023-11-22T07:23:49;11.30;;;7.88;;
22284;SDS011;11311;52.192;20.900;2023-11-22T07:26:19;13.45;;;9.63;;
22284;SDS011;11311;52.192;20.900;2023-11-22T07:28:48;9.57;;;7.00;;
22284;SDS011;11311;52.192;20.900;2023-11-22T07:31:18;10.05;;;7.38;;
22284;SDS011;11311;52.192;20.900;2023-11-22T07:33:48;10.38;;;7.60;;
22284;SDS011;11311;52.192;20.900;2023-11-22T07:36:17;9.10;;;6.10;;
22284;SDS011;11311;52.192;20.900;2023-11-22T07:41:18;8.73;;;6.57;;
22284;SDS011;11311;52.192;20.900;2023-11-22T07:43:48;7.90;;;5.72;;
22284;SDS011;11311;52.192;20.900;2023-11-22T07:46:18;6.38;;;5.10;;
22284;SDS011;11311;52.192;20.900;2023-11-22T07:48:47;6.88;;;5.30;;
22284;SDS011;11311;52.192;20.900;2023-11-22T07:51:17;10.32;;;5.60;;
22284;SDS011;11311;52.192;20.900;2023-11-22T07:53:46;7.13;;;5.88;;
22284;SDS011;11311;52.192;20.900;2023-11-22T07:56:17;8.68;;;5.25;;
22284;SDS011;11311;52.192;20.900;2023-11-22T07:58:46;9.35;;;5.32;;
22284;SDS011;11311;52.192;20.900;2023-11-22T08:01:15;5.70;;;4.95;;
22284;SDS011;11311;52.192;20.900;2023-11-22T08:03:45;8.02;;;5.18;;
22284;SDS011;11311;52.192;20.900;2023-11-22T08:06:15;7.33;;;5.53;;
22284;SDS011;11311;52.192;20.900;2023-11-22T08:08:44;6.95;;;5.75;;
22284;SDS011;11311;52.192;20.900;2023-11-22T08:11:14;6.20;;;5.50;;
22284;SDS011;11311;52.192;20.900;2023-11-22T08:13:44;7.00;;;5.50;;
22284;SDS011;11311;52.192;20.900;2023-11-22T08:16:15;13.10;;;5.63;;
22284;SDS011;11311;52.192;20.900;2023-11-22T08:18:44;6.13;;;4.70;;
22284;SDS011;11311;52.192;20.900;2023-11-22T08:23:45;5.70;;;4.47;;
22284;SDS011;11311;52.192;20.900;2023-11-22T08:28:44;7.07;;;4.10;;
22284;SDS011;11311;52.192;20.900;2023-11-22T08:31:13;7.32;;;5.20;;
22284;SDS011;11311;52.192;20.900;2023-11-22T08:33:44;6.05;;;4.63;;
22284;SDS011;11311;52.192;20.900;2023-11-22T08:36:13;5.90;;;4.85;;
22284;SDS011;11311;52.192;20.900;2023-11-22T08:38:42;5.72;;;4.65;;
22284;SDS011;11311;52.192;20.900;2023-11-22T08:41:12;4.68;;;4.25;;
22284;SDS011;11311;52.192;20.900;2023-11-22T08:43:41;5.15;;;4.22;;
22284;SDS011;11311;52.192;20.900;2023-11-22T08:46:11;5.03;;;4.03;;
22284;SDS011;11311;52.192;20.900;2023-11-22T08:48:41;6.22;;;4.20;;
22284;SDS011;11311;52.192;20.900;2023-11-22T08:51:10;6.53;;;4.40;;
22284;SDS011;11311;52.192;20.900;2023-11-22T08:53:40;7.67;;;4.40;;
22284;SDS011;11311;52.192;20.900;2023-11-22T08:56:12;7.68;;;4.85;;
22284;SDS011;11311;52.192;20.900;2023-11-22T08:58:42;4.57;;;4.13;;
22284;SDS011;11311;52.192;20.900;2023-11-22T09:01:13;4.35;;;3.95;;
22284;SDS011;11311;52.192;20.900;2023-11-22T09:03:43;8.10;;;4.30;;
22284;SDS011;11311;52.192;20.900;2023-11-22T09:06:12;4.32;;;3.50;;
22284;SDS011;11311;52.192;20.900;2023-11-22T09:08:42;6.03;;;4.18;;
22284;SDS011;11311;52.192;20.900;2023-11-22T09:11:13;12.00;;;4.70;;
22284;SDS011;11311;52.192;20.900;2023-11-22T09:13:44;7.15;;;4.30;;
22284;SDS011;11311;52.192;20.900;2023-11-22T09:16:14;5.10;;;4.28;;
22284;SDS011;11311;52.192;20.900;2023-11-22T09:18:44;7.35;;;4.53;;
22284;SDS011;11311;52.192;20.900;2023-11-22T09:21:13;10.75;;;5.50;;
22284;SDS011;11311;52.192;20.900;2023-11-22T09:23:44;7.47;;;4.38;;
22284;SDS011;11311;52.192;20.900;2023-11-22T09:26:15;6.35;;;4.93;;
22284;SDS011;11311;52.192;20.900;2023-11-22T09:28:44;7.38;;;5.22;;
22284;SDS011;11311;52.192;20.900;2023-11-22T09:31:14;9.77;;;6.35;;
22284;SDS011;11311;52.192;20.900;2023-11-22T09:33:47;8.45;;;5.75;;
22284;SDS011;11311;52.192;20.900;2023-11-22T09:36:16;9.35;;;5.72;;
22284;SDS011;11311;52.192;20.900;2023-11-22T09:38:45;14.60;;;6.13;;
22284;SDS011;11311;52.192;20.900;2023-11-22T09:41:15;11.75;;;5.90;;
22284;SDS011;11311;52.192;20.900;2023-11-22T09:43:44;6.03;;;4.95;;
22284;SDS011;11311;52.192;20.900;2023-11-22T09:46:18;6.32;;;4.70;;
22284;SDS011;11311;52.192;20.900;2023-11-22T09:48:49;8.90;;;5.90;;
22284;SDS011;11311;52.192;20.900;2023-11-22T09:51:20;6.38;;;4.90;;
22284;SDS011;11311;52.192;20.900;2023-11-22T09:53:55;5.30;;;4.78;;
22284;SDS011;11311;52.192;20.900;2023-11-22T09:56:26;4.63;;;3.78;;
22284;SDS011;11311;52.192;20.900;2023-11-22T09:58:57;4.72;;;4.10;;
22284;SDS011;11311;52.192;20.900;2023-11-22T10:01:29;4.55;;;4.07;;
22284;SDS011;11311;52.192;20.900;2023-11-22T10:04:01;9.13;;;4.15;;
22284;SDS011;11311;52.192;20.900;2023-11-22T10:06:32;3.53;;;3.22;;
22284;SDS011;11311;52.192;20.900;2023-11-22T10:11:36;6.20;;;5.10;;
22284;SDS011;11311;52.192;20.900;2023-11-22T10:14:07;4.35;;;3.95;;
22284;SDS011;11311;52.192;20.900;2023-11-22T10:16:38;3.10;;;2.78;;
22284;SDS011;11311;52.192;20.900;2023-11-22T10:19:07;6.97;;;4.00;;
22284;SDS011;11311;52.192;20.900;2023-11-22T10:21:41;5.05;;;3.83;;
22284;SDS011;11311;52.192;20.900;2023-11-22T10:24:10;6.07;;;4.35;;
22284;SDS011;11311;52.192;20.900;2023-11-22T10:26:39;4.70;;;3.80;;
22284;SDS011;11311;52.192;20.900;2023-11-22T10:29:08;9.52;;;3.55;;
22284;SDS011;11311;52.192;20.900;2023-11-22T10:31:36;3.83;;;3.53;;
22284;SDS011;11311;52.192;20.900;2023-11-22T10:34:09;7.07;;;5.68;;
22284;SDS011;11311;52.192;20.900;2023-11-22T10:36:38;3.35;;;3.05;;
22284;SDS011;11311;52.192;20.900;2023-11-22T10:39:08;4.60;;;3.65;;
22284;SDS011;11311;52.192;20.900;2023-11-22T10:41:42;5.65;;;3.90;;
22284;SDS011;11311;52.192;20.900;2023-11-22T10:44:12;4.65;;;4.15;;
22284;SDS011;11311;52.192;20.900;2023-11-22T10:49:12;6.25;;;4.35;;
22284;SDS011;11311;52.192;20.900;2023-11-22T10:51:44;5.05;;;4.55;;
22284;SDS011;11311;52.192;20.900;2023-11-22T10:54:16;5.53;;;4.57;;
22284;SDS011;11311;52.192;20.900;2023-11-22T10:59:17;5.82;;;4.38;;
22284;SDS011;11311;52.192;20.900;2023-11-22T11:01:49;6.18;;;4.63;;
22284;SDS011;11311;52.192;20.900;2023-11-22T11:04:23;7.05;;;4.43;;
22284;SDS011;11311;52.192;20.900;2023-11-22T11:06:54;4.88;;;3.90;;
22284;SDS011;11311;52.192;20.900;2023-11-22T11:09:24;5.68;;;4.50;;
22284;SDS011;11311;52.192;20.900;2023-11-22T11:11:59;7.93;;;4.70;;
22284;SDS011;11311;52.192;20.900;2023-11-22T11:14:34;4.80;;;4.28;;
22284;SDS011;11311;52.192;20.900;2023-11-22T11:17:05;4.88;;;4.35;;
22284;SDS011;11311;52.192;20.900;2023-11-22T11:19:34;4.80;;;4.28;;
22284;SDS011;11311;52.192;20.900;2023-11-22T11:22:03;6.30;;;4.45;;
22284;SDS011;11311;52.192;20.900;2023-11-22T11:24:38;6.57;;;4.72;;
22284;SDS011;11311;52.192;20.900;2023-11-22T11:27:08;7.05;;;4.45;;
22284;SDS011;11311;52.192;20.900;2023-11-22T11:29:38;6.05;;;5.05;;
22284;SDS011;11311;52.192;20.900;2023-11-22T11:32:13;5.70;;;4.75;;
22284;SDS011;11311;52.192;20.900;2023-11-22T11:34:47;6.10;;;5.45;;
22284;SDS011;11311;52.192;20.900;2023-11-22T11:37:18;9.63;;;4.95;;
22284;SDS011;11311;52.192;20.900;2023-11-22T11:39:47;5.70;;;5.07;;
22284;SDS011;11311;52.192;20.900;2023-11-22T11:42:17;9.50;;;4.93;;
22284;SDS011;11311;52.192;20.900;2023-11-22T11:47:38;7.65;;;5.45;;
22284;SDS011;11311;52.192;20.900;2023-11-22T11:50:08;10.27;;;5.55;;
22284;SDS011;11311;52.192;20.900;2023-11-22T11:52:38;6.40;;;5.45;;
22284;SDS011;11311;52.192;20.900;2023-11-22T11:55:07;6.38;;;5.45;;
22284;SDS011;11311;52.192;20.900;2023-11-22T11:57:37;8.77;;;5.22;;
22284;SDS011;11311;52.192;20.900;2023-11-22T12:00:08;6.53;;;5.07;;
22284;SDS011;11311;52.192;20.900;2023-11-22T12:02:42;6.80;;;4.72;;
22284;SDS011;11311;52.192;20.900;2023-11-22T12:05:11;10.10;;;5.35;;
22284;SDS011;11311;52.192;20.900;2023-11-22T12:07:40;7.72;;;5.00;;
22284;SDS011;11311;52.192;20.900;2023-11-22T12:10:09;6.32;;;5.55;;
22284;SDS011;11311;52.192;20.900;2023-11-22T12:12:42;6.07;;;5.47;;
22284;SDS011;11311;52.192;20.900;2023-11-22T12:15:13;6.47;;;5.22;;
22284;SDS011;11311;52.192;20.900;2023-11-22T12:17:44;6.40;;;5.40;;
22284;SDS011;11311;52.192;20.900;2023-11-22T12:20:13;11.48;;;6.00;;
22284;SDS011;11311;52.192;20.900;2023-11-22T12:22:46;6.45;;;5.63;;
22284;SDS011;11311;52.192;20.900;2023-11-22T12:25:15;7.63;;;5.93;;
22284;SDS011;11311;52.192;20.900;2023-11-22T12:27:45;7.55;;;5.65;;
22284;SDS011;11311;52.192;20.900;2023-11-22T12:30:33;9.53;;;6.00;;
22284;SDS011;11311;52.192;20.900;2023-11-22T12:33:05;9.13;;;5.25;;
22284;SDS011;11311;52.192;20.900;2023-11-22T12:35:35;11.68;;;6.35;;
22284;SDS011;11311;52.192;20.900;2023-11-22T12:38:05;13.57;;;6.35;;
22284;SDS011;11311;52.192;20.900;2023-11-22T12:40:34;8.77;;;6.22;;
22284;SDS011;11311;52.192;20.900;2023-11-22T12:43:03;11.85;;;6.88;;
22284;SDS011;11311;52.192;20.900;2023-11-22T12:45:34;7.30;;;5.85;;
22284;SDS011;11311;52.192;20.900;2023-11-22T12:48:23;8.00;;;6.18;;
22284;SDS011;11311;52.192;20.900;2023-11-22T12:50:53;11.88;;;6.57;;
22284;SDS011;11311;52.192;20.900;2023-11-22T12:53:23;10.48;;;6.32;;
22284;SDS011;11311;52.192;20.900;2023-11-22T12:55:55;6.72;;;6.03;;
22284;SDS011;11311;52.192;20.900;2023-11-22T12:58:24;8.45;;;7.13;;
22284;SDS011;11311;52.192;20.900;2023-11-22T13:00:55;11.38;;;7.90;;
22284;SDS011;11311;52.192;20.900;2023-11-22T13:03:29;11.70;;;7.20;;
22284;SDS011;11311;52.192;20.900;2023-11-22T13:05:59;8.27;;;6.30;;
22284;SDS011;11311;52.192;20.900;2023-11-22T13:08:28;8.65;;;6.88;;
22284;SDS011;11311;52.192;20.900;2023-11-22T13:10:58;11.20;;;7.47;;
22284;SDS011;11311;52.192;20.900;2023-11-22T13:13:28;9.20;;;6.38;;
22284;SDS011;11311;52.192;20.900;2023-11-22T13:18:27;12.05;;;7.90;;
22284;SDS011;11311;52.192;20.900;2023-11-22T13:20:58;10.75;;;8.75;;
22284;SDS011;11311;52.192;20.900;2023-11-22T13:23:27;13.40;;;9.70;;
22284;SDS011;11311;52.192;20.900;2023-11-22T13:25:56;15.02;;;10.10;;
22284;SDS011;11311;52.192;20.900;2023-11-22T13:28:24;16.95;;;10.43;;
22284;SDS011;11311;52.192;20.900;2023-11-22T13:30:53;19.42;;;11.05;;
22284;SDS011;11311;52.192;20.900;2023-11-22T13:33:22;16.73;;;10.48;;
22284;SDS011;11311;52.192;20.900;2023-11-22T13:35:51;13.00;;;8.68;;
22284;SDS011;11311;52.192;20.900;2023-11-22T13:38:22;15.27;;;11.10;;
22284;SDS011;11311;52.192;20.900;2023-11-22T13:43:19;14.88;;;10.25;;
22284;SDS011;11311;52.192;20.900;2023-11-22T13:45:48;15.05;;;10.65;;
22284;SDS011;11311;52.192;20.900;2023-11-22T13:48:18;17.13;;;9.93;;
22284;SDS011;11311;52.192;20.900;2023-11-22T13:50:47;13.57;;;9.63;;
22284;SDS011;11311;52.192;20.900;2023-11-22T13:53:16;17.27;;;10.37;;
22284;SDS011;11311;52.192;20.900;2023-11-22T13:55:50;12.60;;;9.10;;
22284;SDS011;11311;52.192;20.900;2023-11-22T13:58:21;12.35;;;9.18;;
22284;SDS011;11311;52.192;20.900;2023-11-22T14:00:50;13.20;;;9.43;;
22284;SDS011;11311;52.192;20.900;2023-11-22T14:03:21;12.38;;;9.30;;
22284;SDS011;11311;52.192;20.900;2023-11-22T14:05:51;18.07;;;9.87;;
22284;SDS011;11311;52.192;20.900;2023-11-22T14:08:20;17.80;;;10.73;;
22284;SDS011;11311;52.192;20.900;2023-11-22T14:10:48;14.98;;;10.77;;
22284;SDS011;11311;52.192;20.900;2023-11-22T14:13:19;17.75;;;10.07;;
22284;SDS011;11311;52.192;20.900;2023-11-22T14:15:49;15.02;;;9.77;;
22284;SDS011;11311;52.192;20.900;2023-11-22T14:18:18;16.92;;;9.57;;
22284;SDS011;11311;52.192;20.900;2023-11-22T14:20:47;14.45;;;10.32;;
22284;SDS011;11311;52.192;20.900;2023-11-22T14:23:16;19.17;;;10.00;;
22284;SDS011;11311;52.192;20.900;2023-11-22T14:25:45;21.10;;;10.75;;
22284;SDS011;11311;52.192;20.900;2023-11-22T14:28:16;14.85;;;10.38;;
22284;SDS011;11311;52.192;20.900;2023-11-22T14:30:46;14.93;;;9.77;;
22284;SDS011;11311;52.192;20.900;2023-11-22T14:33:18;12.73;;;9.25;;
22284;SDS011;11311;52.192;20.900;2023-11-22T14:35:48;13.85;;;10.45;;
22284;SDS011;11311;52.192;20.900;2023-11-22T14:38:17;15.13;;;10.63;;
22284;SDS011;11311;52.192;20.900;2023-11-22T14:40:48;15.80;;;10.55;;
22284;SDS011;11311;52.192;20.900;2023-11-22T14:43:19;17.25;;;10.05;;
22284;SDS011;11311;52.192;20.900;2023-11-22T14:45:48;16.90;;;11.15;;
22284;SDS011;11311;52.192;20.900;2023-11-22T14:48:17;20.38;;;11.85;;
22284;SDS011;11311;52.192;20.900;2023-11-22T14:50:46;20.55;;;10.60;;
22284;SDS011;11311;52.192;20.900;2023-11-22T14:53:15;22.65;;;12.07;;
22284;SDS011;11311;52.192;20.900;2023-11-22T14:55:43;18.95;;;11.82;;
22284;SDS011;11311;52.192;20.900;2023-11-22T14:58:13;26.52;;;13.52;;
22284;SDS011;11311;52.192;20.900;2023-11-22T15:00:43;21.50;;;13.20;;
22284;SDS011;11311;52.192;20.900;2023-11-22T15:03:13;22.83;;;14.27;;
22284;SDS011;11311;52.192;20.900;2023-11-22T15:05:42;22.40;;;14.10;;
22284;SDS011;11311;52.192;20.900;2023-11-22T15:08:11;21.52;;;14.77;;
22284;SDS011;11311;52.192;20.900;2023-11-22T15:10:40;24.48;;;15.23;;
22284;SDS011;11311;52.192;20.900;2023-11-22T15:13:09;28.15;;;15.52;;
22284;SDS011;11311;52.192;20.900;2023-11-22T15:15:38;30.05;;;14.38;;